createdAt,value
2019-02-21T00:01:32.940Z,65.22
2019-02-21T00:04:09.941Z,65.33
2019-02-21T00:06:44.230Z,65.36
2019-02-21T00:09:18.417Z,65.67
2019-02-21T00:11:52.840Z,65.44
2019-02-21T00:14:27.145Z,65.24
2019-02-21T00:17:01.443Z,65.10
2019-02-21T00:19:35.729Z,65.38
2019-02-21T00:22:10.236Z,65.57
2019-02-21T00:24:44.711Z,65.39
2019-02-21T00:27:19.269Z,65.54
2019-02-21T00:29:53.544Z,65.30
2019-02-21T00:32:28.016Z,65.48
2019-02-21T00:35:02.281Z,65.49
2019-02-21T00:37:36.360Z,65.73
2019-02-21T00:40:10.823Z,65.71
2019-02-21T00:42:45.088Z,65.81
2019-02-21T00:45:19.415Z,66.02
2019-02-21T00:47:53.577Z,65.65
2019-02-21T00:50:27.879Z,65.23
2019-02-21T00:53:02.124Z,65.51
2019-02-21T00:55:36.509Z,65.14
2019-02-21T00:58:10.934Z,65.38
2019-02-21T01:00:46.789Z,65.60
2019-02-21T01:03:22.349Z,65.37
2019-02-21T01:05:56.467Z,65.74
2019-02-21T01:08:30.594Z,65.68
2019-02-21T01:11:06.217Z,65.55
2019-02-21T01:13:40.651Z,65.39
2019-02-21T01:16:15.219Z,65.60
2019-02-21T01:18:49.339Z,65.55
2019-02-21T01:21:24.651Z,65.76
2019-02-21T01:23:58.907Z,65.51
2019-02-21T01:26:32.829Z,65.31
2019-02-21T01:29:07.265Z,65.26
2019-02-21T01:31:41.789Z,65.36
2019-02-21T01:34:15.919Z,65.32
2019-02-21T01:36:50.125Z,65.12
2019-02-21T01:39:24.236Z,65.23
2019-02-21T01:41:58.265Z,65.39
2019-02-21T01:44:33.501Z,66.10
2019-02-21T01:47:07.526Z,66.17
2019-02-21T01:49:41.640Z,66.03
2019-02-21T01:52:15.894Z,66.05
2019-02-21T01:54:50.077Z,66.17
2019-02-21T01:57:24.401Z,66.20
2019-02-21T01:59:58.295Z,66.08
2019-02-21T02:02:33.149Z,66.04
2019-02-21T02:05:07.908Z,66.13
2019-02-21T02:07:42.685Z,66.12
2019-02-21T02:10:16.989Z,66.56
2019-02-21T02:12:52.399Z,66.65
2019-02-21T02:15:26.626Z,66.63
2019-02-21T02:18:00.758Z,66.94
2019-02-21T02:20:34.988Z,67.12
2019-02-21T02:23:09.185Z,66.86
2019-02-21T02:25:43.533Z,67.05
2019-02-21T02:28:18.826Z,66.80
2019-02-21T02:30:53.281Z,66.95
2019-02-21T02:33:27.546Z,66.86
2019-02-21T02:36:01.459Z,66.84
2019-02-21T02:38:35.712Z,66.67
2019-02-21T02:41:10.018Z,66.54
2019-02-21T02:43:44.220Z,66.68
2019-02-21T02:46:19.355Z,66.50
2019-02-21T02:48:54.648Z,66.67
2019-02-21T02:51:28.895Z,66.60
2019-02-21T02:54:03.152Z,66.54
2019-02-21T02:56:37.434Z,66.81
2019-02-21T02:59:11.889Z,66.71
2019-02-21T03:01:46.217Z,66.67
2019-02-21T03:04:20.729Z,65.54
2019-02-21T03:06:56.588Z,65.15
2019-02-21T03:09:30.858Z,65.00
2019-02-21T03:12:05.265Z,64.84
2019-02-21T03:14:39.682Z,64.75
2019-02-21T03:17:14.099Z,64.40
2019-02-21T03:19:48.262Z,64.40
2019-02-21T03:22:22.592Z,63.49
2019-02-21T03:24:57.845Z,63.34
2019-02-21T03:27:32.077Z,63.49
2019-02-21T03:30:06.424Z,63.83
2019-02-21T03:32:40.810Z,63.91
2019-02-21T03:35:15.051Z,64.06
2019-02-21T03:37:49.794Z,63.86
2019-02-21T03:40:23.898Z,63.97
2019-02-21T03:42:58.450Z,63.89
2019-02-21T03:45:32.791Z,63.73
2019-02-21T03:48:07.319Z,63.52
2019-02-21T03:50:43.008Z,63.67
2019-02-21T03:53:20.571Z,63.89
2019-02-21T03:55:55.358Z,63.86
2019-02-21T03:58:29.938Z,63.53
2019-02-21T04:01:04.177Z,63.46
2019-02-21T04:03:39.277Z,63.25
2019-02-21T04:06:13.215Z,63.28
2019-02-21T04:08:47.550Z,63.04
2019-02-21T04:11:21.892Z,62.88
2019-02-21T04:13:56.090Z,62.83
2019-02-21T04:16:30.369Z,62.75
2019-02-21T04:19:04.702Z,62.85
2019-02-21T04:21:38.925Z,62.71
2019-02-21T04:24:14.255Z,62.62
2019-02-21T04:26:48.366Z,62.84
2019-02-21T04:29:22.602Z,62.67
2019-02-21T04:31:56.914Z,62.89
2019-02-21T04:34:31.012Z,62.88
2019-02-21T04:37:05.410Z,63.15
2019-02-21T04:39:39.702Z,63.14
2019-02-21T04:42:13.791Z,62.95
2019-02-21T04:44:48.349Z,63.08
2019-02-21T04:47:22.533Z,63.21
2019-02-21T04:49:56.697Z,63.29
2019-02-21T04:52:31.159Z,63.25
2019-02-21T04:55:05.771Z,63.35
2019-02-21T04:57:40.142Z,63.32
2019-02-21T05:00:15.154Z,63.43
2019-02-21T05:02:49.625Z,63.31
2019-02-21T05:05:24.137Z,63.31
2019-02-21T05:07:58.207Z,63.16
2019-02-21T05:10:32.751Z,63.31
2019-02-21T05:13:07.116Z,63.65
2019-02-21T05:15:41.442Z,65.25
2019-02-21T05:18:16.067Z,65.79
2019-02-21T05:20:51.476Z,65.94
2019-02-21T05:23:26.086Z,65.94
2019-02-21T05:26:00.268Z,65.96
2019-02-21T05:28:35.012Z,66.11
2019-02-21T05:31:31.102Z,66.16
2019-02-21T05:34:13.745Z,66.10
2019-02-21T05:37:09.039Z,66.02
2019-02-21T05:40:03.098Z,65.98
2019-02-21T05:42:51.178Z,66.10
2019-02-21T05:45:32.448Z,66.09
2019-02-21T05:48:23.676Z,65.88
2019-02-21T05:51:29.342Z,66.10
2019-02-21T05:54:18.005Z,66.13
2019-02-21T05:57:13.829Z,65.99
2019-02-21T06:00:18.751Z,65.95
2019-02-21T06:03:10.050Z,66.02
2019-02-21T06:06:01.349Z,66.02
2019-02-21T06:09:00.624Z,66.34
2019-02-21T06:14:43.634Z,66.49
2019-02-21T06:17:36.314Z,66.54
2019-02-21T06:20:29.786Z,66.64
2019-02-21T06:23:34.670Z,66.55
2019-02-21T06:26:16.610Z,66.60
2019-02-21T06:29:04.561Z,66.74
2019-02-21T06:31:38.693Z,66.73
2019-02-21T06:34:49.120Z,66.70
2019-02-21T06:37:23.784Z,66.51
2019-02-21T06:39:58.533Z,66.51
2019-02-21T06:42:33.268Z,66.47
2019-02-21T06:45:08.307Z,66.51
2019-02-21T06:47:43.090Z,66.52
2019-02-21T06:50:26.422Z,66.56
2019-02-21T06:52:55.019Z,66.47
2019-02-21T06:55:30.406Z,66.65
2019-02-21T06:58:06.700Z,66.61
2019-02-21T07:00:42.027Z,66.37
2019-02-21T07:03:17.245Z,66.18
2019-02-21T07:05:52.581Z,66.09
2019-02-21T07:08:27.778Z,65.76
2019-02-21T07:11:06.493Z,65.94
2019-02-21T07:13:40.643Z,66.10
2019-02-21T07:16:17.298Z,66.00
2019-02-21T07:18:52.347Z,66.04
2019-02-21T07:21:28.940Z,66.07
2019-02-21T07:24:04.454Z,66.31
2019-02-21T07:26:39.664Z,66.45
2019-02-21T07:29:15.023Z,66.64
2019-02-21T07:31:50.198Z,66.67
2019-02-21T07:34:25.841Z,66.80
2019-02-21T07:37:02.009Z,66.50
2019-02-21T07:39:37.398Z,66.40
2019-02-21T07:42:13.594Z,66.35
2019-02-21T07:44:48.881Z,66.44
2019-02-21T07:47:24.510Z,66.46
2019-02-21T07:49:59.412Z,66.57
2019-02-21T07:52:34.966Z,66.66
2019-02-21T07:55:10.631Z,66.59
2019-02-21T07:57:47.087Z,67.22
2019-02-21T08:00:23.738Z,67.28
2019-02-21T08:02:58.763Z,67.38
2019-02-21T08:05:33.748Z,67.57
2019-02-21T08:08:10.930Z,67.67
2019-02-21T08:10:47.050Z,67.74
2019-02-21T08:13:22.398Z,67.73
2019-02-21T08:15:57.027Z,67.75
2019-02-21T08:18:32.366Z,68.31
2019-02-21T08:21:07.243Z,68.05
2019-02-21T08:23:50.053Z,68.14
2019-02-21T08:26:20.109Z,68.12
2019-02-21T08:28:55.558Z,68.07
2019-02-21T08:31:31.201Z,68.10
2019-02-21T08:34:09.683Z,68.00
2019-02-21T08:36:44.388Z,67.60
2019-02-21T08:39:18.758Z,67.21
2019-02-21T08:41:55.186Z,67.26
2019-02-21T08:44:29.879Z,67.48
2019-02-21T08:47:04.537Z,67.88
2019-02-21T08:49:39.022Z,67.82
2019-02-21T08:52:13.501Z,68.01
2019-02-21T08:54:59.624Z,67.88
2019-02-21T08:57:24.682Z,67.95
2019-02-21T08:59:59.417Z,67.72
2019-02-21T09:02:35.924Z,67.62
2019-02-21T09:05:10.577Z,67.71
2019-02-21T09:07:46.583Z,67.59
2019-02-21T09:10:21.347Z,67.45
2019-02-21T09:12:55.790Z,67.50
2019-02-21T09:15:30.455Z,67.67
2019-02-21T09:18:04.981Z,67.58
2019-02-21T09:20:39.896Z,67.82
2019-02-21T09:23:15.866Z,67.47
2019-02-21T09:25:50.662Z,67.78
2019-02-21T09:28:25.321Z,67.71
2019-02-21T09:31:00.061Z,67.88
2019-02-21T09:33:37.245Z,67.93
2019-02-21T09:36:12.082Z,67.80
2019-02-21T09:38:46.357Z,67.79
2019-02-21T09:41:20.747Z,67.82
2019-02-21T09:43:55.119Z,67.83
2019-02-21T09:46:29.422Z,67.55
2019-02-21T09:49:03.916Z,67.56
2019-02-21T09:51:38.189Z,67.69
2019-02-21T09:54:12.627Z,67.72
2019-02-21T09:56:52.798Z,67.54
2019-02-21T09:59:23.732Z,67.84
2019-02-21T10:01:57.899Z,67.66
2019-02-21T10:04:32.618Z,67.36
2019-02-21T10:07:07.163Z,67.59
2019-02-21T10:09:41.613Z,67.89
2019-02-21T10:12:15.923Z,68.02
2019-02-21T10:14:54.777Z,67.99
2019-02-21T10:17:29.097Z,67.89
2019-02-21T10:20:04.249Z,67.67
2019-02-21T10:22:38.432Z,67.83
2019-02-21T10:25:19.399Z,68.23
2019-02-21T10:27:53.635Z,68.28
2019-02-21T10:30:27.895Z,68.59
2019-02-21T10:33:02.346Z,68.65
2019-02-21T10:35:37.060Z,68.70
2019-02-21T10:38:11.448Z,68.60
2019-02-21T10:40:46.570Z,68.55
2019-02-21T10:43:20.954Z,68.57
2019-02-21T10:45:55.088Z,68.65
2019-02-21T10:48:29.477Z,68.87
2019-02-21T10:51:03.781Z,68.89
2019-02-21T10:53:37.903Z,68.85
2019-02-21T10:56:12.300Z,68.95
2019-02-21T10:58:46.428Z,68.93
2019-02-21T11:01:20.732Z,68.90
2019-02-21T11:03:55.031Z,68.85
2019-02-21T11:06:29.404Z,68.76
2019-02-21T11:09:04.143Z,68.76
2019-02-21T11:11:38.744Z,68.79
2019-02-21T11:14:13.171Z,68.80
2019-02-21T11:16:48.473Z,68.83
2019-02-21T11:19:22.819Z,68.81
2019-02-21T11:21:56.980Z,68.79
2019-02-21T11:24:31.250Z,68.81
2019-02-21T11:27:06.617Z,68.79
2019-02-21T11:29:40.909Z,68.77
2019-02-21T11:32:15.345Z,68.84
2019-02-21T11:34:49.797Z,68.76
2019-02-21T11:37:24.117Z,68.82
2019-02-21T11:39:58.372Z,68.89
2019-02-21T11:42:32.773Z,68.82
2019-02-21T11:45:07.493Z,68.80
2019-02-21T11:47:41.782Z,68.76
2019-02-21T11:50:18.235Z,68.77
2019-02-21T11:52:53.206Z,68.83
2019-02-21T11:55:27.735Z,68.90
2019-02-21T11:58:01.883Z,68.81
2019-02-21T12:00:36.469Z,68.86
2019-02-21T12:03:10.647Z,68.90
2019-02-21T12:05:44.973Z,68.91
2019-02-21T12:08:19.204Z,69.02
2019-02-21T12:10:53.470Z,68.98
2019-02-21T12:13:28.631Z,68.91
2019-02-21T12:16:04.501Z,69.03
2019-02-21T12:18:38.856Z,69.08
2019-02-21T12:21:13.318Z,68.94
2019-02-21T12:23:47.698Z,69.01
2019-02-21T12:26:21.957Z,69.02
2019-02-21T12:28:56.394Z,69.09
2019-02-21T12:31:30.615Z,69.04
2019-02-21T12:34:04.708Z,69.18
2019-02-21T12:36:39.263Z,68.98
2019-02-21T12:39:13.769Z,69.05
2019-02-21T12:41:48.166Z,69.25
2019-02-21T12:44:22.467Z,69.32
2019-02-21T12:46:56.677Z,69.24
2019-02-21T12:49:32.723Z,69.36
2019-02-21T12:52:08.206Z,69.44
2019-02-21T12:54:43.606Z,69.27
2019-02-21T12:57:18.318Z,69.31
2019-02-21T12:59:52.640Z,69.42
2019-02-21T13:02:28.070Z,69.33
2019-02-21T13:05:02.662Z,69.37
2019-02-21T13:07:36.846Z,69.35
2019-02-21T13:10:13.687Z,68.69
2019-02-21T13:12:48.097Z,67.57
2019-02-21T13:15:22.671Z,67.14
2019-02-21T13:17:57.250Z,66.98
2019-02-21T13:20:31.728Z,66.72
2019-02-21T13:23:06.167Z,66.69
2019-02-21T13:25:40.678Z,66.37
2019-02-21T13:28:14.998Z,66.31
2019-02-21T13:30:49.637Z,66.50
2019-02-21T13:33:24.146Z,66.23
2019-02-21T13:35:58.611Z,66.27
2019-02-21T13:38:33.274Z,66.20
2019-02-21T13:41:07.735Z,67.37
2019-02-21T13:43:42.083Z,68.26
2019-02-21T13:46:18.684Z,68.55
2019-02-21T13:49:01.307Z,68.79
2019-02-21T13:51:33.788Z,68.88
2019-02-21T13:54:08.060Z,68.71
2019-02-21T13:56:42.575Z,68.75
2019-02-21T13:59:16.588Z,68.86
2019-02-21T14:01:50.793Z,68.99
2019-02-21T14:04:25.189Z,69.09
2019-02-21T14:06:59.563Z,69.21
2019-02-21T14:09:33.831Z,69.16
2019-02-21T14:12:08.181Z,68.30
2019-02-21T14:14:42.668Z,67.55
2019-02-21T14:17:17.180Z,67.22
2019-02-21T14:19:53.057Z,67.09
2019-02-21T14:22:27.687Z,66.96
2019-02-21T14:25:02.044Z,66.87
2019-02-21T14:27:36.307Z,66.86
2019-02-21T14:30:12.227Z,66.81
2019-02-21T14:32:46.622Z,66.77
2019-02-21T14:35:21.036Z,66.77
2019-02-21T14:37:55.322Z,66.77
2019-02-21T14:40:29.598Z,66.77
2019-02-21T14:43:03.851Z,66.73
2019-02-21T14:45:38.160Z,66.70
2019-02-21T14:48:12.510Z,66.70
2019-02-21T14:50:47.337Z,66.74
2019-02-21T14:53:22.590Z,66.73
2019-02-21T14:55:57.077Z,66.69
2019-02-21T14:58:31.261Z,66.67
2019-02-21T15:01:06.541Z,66.65
2019-02-21T15:03:40.701Z,66.64
2019-02-21T15:06:26.526Z,66.63
2019-02-21T15:08:51.517Z,66.66
2019-02-21T15:11:25.819Z,66.66
2019-02-21T15:13:59.931Z,66.65
2019-02-21T15:16:34.303Z,66.69
2019-02-21T15:19:08.596Z,66.56
2019-02-21T15:21:43.503Z,66.66
2019-02-21T15:24:18.013Z,66.41
2019-02-21T15:26:52.182Z,66.36
2019-02-21T15:29:26.525Z,66.23
2019-02-21T15:32:10.633Z,66.54
2019-02-21T15:34:37.316Z,66.73
2019-02-21T15:37:11.369Z,66.74
2019-02-21T15:39:45.721Z,66.55
2019-02-21T15:42:20.237Z,66.62
2019-02-21T15:44:54.543Z,68.08
2019-02-21T15:47:28.912Z,68.74
2019-02-21T15:50:03.167Z,68.74
2019-02-21T15:52:37.780Z,68.68
2019-02-21T15:55:13.302Z,68.68
2019-02-21T15:57:48.139Z,68.66
2019-02-21T16:00:22.826Z,68.81
2019-02-21T16:02:57.046Z,68.88
2019-02-21T16:05:31.304Z,68.91
2019-02-21T16:08:05.478Z,68.85
2019-02-21T16:10:40.020Z,68.88
2019-02-21T16:13:14.804Z,68.91
2019-02-21T16:15:49.600Z,68.84
2019-02-21T16:18:23.538Z,68.86
2019-02-21T16:20:57.841Z,69.04
2019-02-21T16:23:32.038Z,69.06
2019-02-21T16:26:06.140Z,68.90
2019-02-21T16:28:40.455Z,69.01
2019-02-21T16:31:14.915Z,68.97
2019-02-21T16:33:49.418Z,68.89
2019-02-21T16:36:23.710Z,68.95
2019-02-21T16:38:58.249Z,69.00
2019-02-21T16:41:36.369Z,68.96
2019-02-21T16:44:08.396Z,68.95
2019-02-21T16:46:42.938Z,68.92
2019-02-21T16:49:17.107Z,68.73
2019-02-21T16:51:51.419Z,68.79
2019-02-21T16:54:25.938Z,68.62
2019-02-21T16:57:00.271Z,68.77
2019-02-21T16:59:34.637Z,68.75
2019-02-21T17:02:08.955Z,68.71
2019-02-21T17:04:43.374Z,68.73
2019-02-21T17:07:20.230Z,68.39
2019-02-21T17:09:53.667Z,68.56
2019-02-21T17:12:27.909Z,68.55
2019-02-21T17:15:02.567Z,68.51
2019-02-21T17:17:38.185Z,68.46
2019-02-21T17:20:13.990Z,68.55
2019-02-21T17:22:48.471Z,68.48
2019-02-21T17:25:22.884Z,68.46
2019-02-21T17:27:57.415Z,68.51
2019-02-21T17:30:31.684Z,68.44
2019-02-21T17:33:05.973Z,68.44
2019-02-21T17:35:40.157Z,68.47
2019-02-21T17:38:14.680Z,68.43
2019-02-21T17:40:49.166Z,68.45
2019-02-21T17:43:24.490Z,68.49
2019-02-21T17:45:58.731Z,68.55
2019-02-21T17:48:32.967Z,68.53
2019-02-21T17:51:07.353Z,68.68
2019-02-21T17:53:41.440Z,68.52
2019-02-21T17:56:15.756Z,68.50
2019-02-21T17:58:50.330Z,68.49
2019-02-21T18:01:25.573Z,68.57
2019-02-21T18:04:00.595Z,68.63
2019-02-21T18:06:34.783Z,68.65
2019-02-21T18:09:09.494Z,68.56
2019-02-21T18:11:44.470Z,68.61
2019-02-21T18:14:18.778Z,68.43
2019-02-21T18:16:53.170Z,68.49
2019-02-21T18:19:27.818Z,68.63
2019-02-21T18:22:01.912Z,68.46
2019-02-21T18:24:36.385Z,68.40
2019-02-21T18:27:10.641Z,68.52
2019-02-21T18:29:45.072Z,68.59
2019-02-21T18:32:20.462Z,68.50
2019-02-21T18:34:54.932Z,68.71
2019-02-21T18:37:29.457Z,68.85
2019-02-21T18:40:03.929Z,68.86
2019-02-21T18:42:38.532Z,68.78
2019-02-21T18:45:12.879Z,68.89
2019-02-21T18:47:47.424Z,68.86
2019-02-21T18:50:21.703Z,68.88
2019-02-21T18:52:56.051Z,68.92
2019-02-21T18:55:30.272Z,68.88
2019-02-21T18:58:04.845Z,68.92
2019-02-21T19:00:39.166Z,68.91
2019-02-21T19:03:13.521Z,69.97
2019-02-21T19:05:47.970Z,70.49
2019-02-21T19:08:22.868Z,70.70
2019-02-21T19:10:58.219Z,70.83
2019-02-21T19:13:32.533Z,70.88
2019-02-21T19:16:08.113Z,70.92
2019-02-21T19:18:42.582Z,70.97
2019-02-21T19:21:17.042Z,70.98
2019-02-21T19:23:51.197Z,71.01
2019-02-21T19:26:25.669Z,71.08
2019-02-21T19:29:00.042Z,71.10
2019-02-21T19:31:34.635Z,71.12
2019-02-21T19:34:09.981Z,71.12
2019-02-21T19:36:44.266Z,71.18
2019-02-21T19:39:18.797Z,71.19
2019-02-21T19:41:52.957Z,71.19
2019-02-21T19:44:27.354Z,71.24
2019-02-21T19:47:01.574Z,71.21
2019-02-21T19:49:35.882Z,71.23
2019-02-21T19:52:10.170Z,71.29
2019-02-21T19:54:44.639Z,71.29
2019-02-21T19:57:18.994Z,71.33
2019-02-21T19:59:53.435Z,71.36
2019-02-21T20:02:27.925Z,71.36
2019-02-21T20:05:02.401Z,71.41
2019-02-21T20:07:36.500Z,71.38
2019-02-21T20:10:10.909Z,71.42
2019-02-21T20:12:45.323Z,71.41
2019-02-21T20:15:19.759Z,71.43
2019-02-21T20:17:54.130Z,71.42
2019-02-21T20:20:28.449Z,71.44
2019-02-21T20:23:02.748Z,71.42
2019-02-21T20:25:37.180Z,71.48
2019-02-21T20:28:11.668Z,71.47
2019-02-21T20:30:45.958Z,71.46
2019-02-21T20:33:20.471Z,71.47
2019-02-21T20:35:54.548Z,71.46
2019-02-21T20:38:32.174Z,71.49
2019-02-21T20:41:05.289Z,71.49
2019-02-21T20:43:39.777Z,71.46
2019-02-21T20:46:14.239Z,71.48
2019-02-21T20:48:48.679Z,71.45
2019-02-21T20:51:22.883Z,71.45
2019-02-21T20:53:57.466Z,71.45
2019-02-21T20:56:32.768Z,71.46
2019-02-21T20:59:08.034Z,71.44
2019-02-21T21:01:42.229Z,71.50
2019-02-21T21:04:16.456Z,71.50
2019-02-21T21:06:50.844Z,71.49
2019-02-21T21:09:25.281Z,71.49
2019-02-21T21:11:59.700Z,71.48
2019-02-21T21:14:33.981Z,71.50
2019-02-21T21:17:08.288Z,71.50
2019-02-21T21:19:42.901Z,71.51
2019-02-21T21:22:17.176Z,71.48
2019-02-21T21:24:51.279Z,71.46
2019-02-21T21:27:25.606Z,71.48
2019-02-21T21:29:59.977Z,71.41
2019-02-21T21:32:34.391Z,71.36
2019-02-21T21:35:09.037Z,71.26
2019-02-21T21:37:44.530Z,71.31
2019-02-21T21:40:18.908Z,71.42
2019-02-21T21:42:53.303Z,71.43
2019-02-21T21:45:27.916Z,71.44
2019-02-21T21:48:02.005Z,71.43
2019-02-21T21:50:36.442Z,71.40
2019-02-21T21:53:11.817Z,71.41
2019-02-21T21:55:45.880Z,71.39
2019-02-21T21:58:20.093Z,71.40
2019-02-21T22:00:54.227Z,71.39
2019-02-21T22:03:28.609Z,71.38
2019-02-21T22:06:02.801Z,71.38
2019-02-21T22:08:36.972Z,71.40
2019-02-21T22:11:11.140Z,71.39
2019-02-21T22:13:45.354Z,71.38
2019-02-21T22:16:19.405Z,71.37
2019-02-21T22:18:53.669Z,71.34
2019-02-21T22:21:28.711Z,71.34
2019-02-21T22:24:03.128Z,71.35
2019-02-21T22:26:37.422Z,71.39
2019-02-21T22:29:11.728Z,71.39
2019-02-21T22:31:45.922Z,71.40
2019-02-21T22:34:20.179Z,71.41
2019-02-21T22:36:54.339Z,71.42
2019-02-21T22:39:28.416Z,71.43
2019-02-21T22:42:02.550Z,71.41
2019-02-21T22:44:36.593Z,71.40
2019-02-21T22:47:10.875Z,71.42
2019-02-21T22:49:45.211Z,71.42
2019-02-21T22:52:19.315Z,71.42
2019-02-21T22:54:54.548Z,71.43
2019-02-21T22:57:28.657Z,71.40
2019-02-21T23:00:02.857Z,71.40
2019-02-21T23:02:39.131Z,71.40
2019-02-21T23:05:42.533Z,71.32
2019-02-21T23:09:10.174Z,71.28
2019-02-21T23:11:44.728Z,71.19
2019-02-21T23:14:19.541Z,71.15
2019-02-21T23:16:54.039Z,71.16
2019-02-21T23:19:27.982Z,71.14
2019-02-21T23:22:02.308Z,71.10
2019-02-21T23:24:36.862Z,71.13
2019-02-21T23:27:11.072Z,71.09
2019-02-21T23:29:46.421Z,71.09
2019-02-21T23:32:20.728Z,71.08
2019-02-21T23:34:56.376Z,71.05
2019-02-21T23:37:30.739Z,71.06
2019-02-21T23:40:05.190Z,70.84
2019-02-21T23:42:39.819Z,70.84
2019-02-21T23:45:15.267Z,70.46
2019-02-21T23:47:50.160Z,70.12
2019-02-21T23:50:24.772Z,70.17
2019-02-21T23:52:59.005Z,70.25
2019-02-21T23:55:33.336Z,70.23
2019-02-21T23:58:07.851Z,70.26
